Time;durP1;ratioP1;P1;durP2;ratioP2;P2;SDS_P1;SDS_P2;PMS_P1;PMS_P2;Temp;Humidity;BMP_temperature;BMP_pressure;BME280_temperature;BME280_humidity;BME280_pressure;Samples;Min_cycle;Max_cycle;Signal;HPM_P1;HPM_P2
2022/07/21 00:02:24;;;;;;;34.37;22.80;;;;;;;;;;5018743;28;20228;-80
2022/07/21 00:04:52;;;;;;;29.63;21.03;;;;;;;;;;5014968;28;20224;-80
2022/07/21 00:07:19;;;;;;;35.40;22.97;;;;;;;;;;5017546;28;20308;-80
2022/07/21 00:09:47;;;;;;;34.70;22.17;;;;;;;;;;5016873;28;20204;-80
2022/07/21 00:12:15;;;;;;;34.87;22.57;;;;;;;;;;5016204;28;20208;-80
2022/07/21 00:14:42;;;;;;;36.83;22.70;;;;;;;;;;5013039;28;20228;-80
2022/07/21 00:17:09;;;;;;;36.67;23.13;;;;;;;;;;5016862;28;20223;-80
2022/07/21 00:19:36;;;;;;;42.27;23.77;;;;;;;;;;5018743;28;20208;-80
2022/07/21 00:22:03;;;;;;;38.53;24.80;;;;;;;;;;5018612;28;20228;-79
2022/07/21 00:24:30;;;;;;;41.20;25.70;;;;;;;;;;5014505;28;20267;-79
2022/07/21 00:26:59;;;;;;;40.67;24.53;;;;;;;;;;5015614;28;20220;-80
2022/07/21 00:29:26;;;;;;;38.10;23.87;;;;;;;;;;5019112;28;20196;-79
2022/07/21 00:31:53;;;;;;;37.87;23.93;;;;;;;;;;5018467;28;20291;-80
2022/07/21 00:34:20;;;;;;;40.50;23.13;;;;;;;;;;5017456;28;20240;-80
2022/07/21 00:36:48;;;;;;;37.00;23.33;;;;;;;;;;5018223;28;20204;-80
2022/07/21 00:39:15;;;;;;;38.27;22.93;;;;;;;;;;5018697;28;20630;-80
2022/07/21 00:41:44;;;;;;;35.63;23.00;;;;;;;;;;5017995;28;20200;-80
2022/07/21 00:44:21;;;;;;;32.77;22.70;;;;;;;;;;5016005;28;20311;-80
2022/07/21 00:46:49;;;;;;;32.60;22.57;;;;;;;;;;5018235;28;20205;-80
2022/07/21 00:49:16;;;;;;;34.30;22.20;;;;;;;;;;5021001;28;20208;-80
2022/07/21 00:51:43;;;;;;;31.77;21.97;;;;;;;;;;5020468;28;20635;-80
2022/07/21 00:54:10;;;;;;;35.83;22.87;;;;;;;;;;5026960;28;20239;-81
2022/07/21 01:00:12;;;;;;;34.07;20.77;;;;;;;;;;5006209;28;20327;-81
2022/07/21 01:02:46;;;;;;;29.47;20.50;;;;;;;;;;5022737;28;20247;-81
2022/07/21 01:05:15;;;;;;;28.60;19.83;;;;;;;;;;5017705;28;20282;-81
2022/07/21 01:07:42;;;;;;;26.67;18.70;;;;;;;;;;5015825;28;20243;-81
2022/07/21 01:10:10;;;;;;;27.30;18.30;;;;;;;;;;5011981;28;20205;-80
2022/07/21 01:12:37;;;;;;;32.03;19.27;;;;;;;;;;5016525;28;20665;-79
2022/07/21 01:15:05;;;;;;;29.73;18.93;;;;;;;;;;5014555;28;20224;-80
2022/07/21 01:17:33;;;;;;;28.47;18.03;;;;;;;;;;5019268;28;20588;-80
2022/07/21 01:20:03;;;;;;;25.20;14.63;;;;;;;;;;5019111;28;20238;-80
2022/07/21 01:25:35;;;;;;;23.07;13.43;;;;;;;;;;5017739;28;20589;-80
2022/07/21 01:28:02;;;;;;;28.33;13.23;;;;;;;;;;5013543;28;20227;-80
2022/07/21 01:30:30;;;;;;;17.30;9.97;;;;;;;;;;5016095;28;20250;-80
2022/07/21 01:32:57;;;;;;;19.97;9.63;;;;;;;;;;5014696;28;20220;-79
2022/07/21 01:35:24;;;;;;;11.90;8.27;;;;;;;;;;5021144;28;20248;-80
2022/07/21 01:37:51;;;;;;;14.67;7.97;;;;;;;;;;5015095;28;20280;-80
2022/07/21 01:43:06;;;;;;;15.83;7.93;;;;;;;;;;5016671;28;20231;-80
2022/07/21 01:45:33;;;;;;;16.47;7.80;;;;;;;;;;5019042;28;20323;-81
2022/07/21 01:48:00;;;;;;;13.03;7.97;;;;;;;;;;5015517;28;21260;-80
2022/07/21 01:50:28;;;;;;;15.20;8.50;;;;;;;;;;5015743;28;20677;-81
2022/07/21 01:52:55;;;;;;;15.63;8.87;;;;;;;;;;5017721;28;20665;-81
2022/07/21 01:55:23;;;;;;;13.17;7.60;;;;;;;;;;5018109;28;20232;-81
2022/07/21 01:57:50;;;;;;;15.10;8.67;;;;;;;;;;5017707;28;20220;-80
2022/07/21 02:00:19;;;;;;;15.80;8.60;;;;;;;;;;5018565;28;20215;-81
2022/07/21 02:02:46;;;;;;;17.83;8.97;;;;;;;;;;5020453;28;20228;-81
2022/07/21 02:05:13;;;;;;;13.90;9.17;;;;;;;;;;5017455;28;20252;-81
2022/07/21 02:07:41;;;;;;;17.77;9.03;;;;;;;;;;5019734;28;20208;-81
2022/07/21 02:10:08;;;;;;;15.57;7.97;;;;;;;;;;5019399;28;20222;-80
2022/07/21 02:12:35;;;;;;;14.47;8.40;;;;;;;;;;5021672;28;20231;-81
2022/07/21 02:15:03;;;;;;;14.17;8.33;;;;;;;;;;5022687;28;20316;-80
2022/07/21 02:17:31;;;;;;;15.93;8.60;;;;;;;;;;5022069;28;20233;-81
2022/07/21 02:19:58;;;;;;;13.20;8.10;;;;;;;;;;5015025;28;20210;-80
2022/07/21 02:22:26;;;;;;;13.23;8.30;;;;;;;;;;5013810;28;20239;-80
2022/07/21 02:24:53;;;;;;;14.40;8.40;;;;;;;;;;5014713;28;20259;-80
2022/07/21 02:27:20;;;;;;;13.03;8.00;;;;;;;;;;5024351;28;20212;-80
2022/07/21 02:29:47;;;;;;;11.80;8.17;;;;;;;;;;5022880;28;20208;-80
2022/07/21 02:32:14;;;;;;;13.33;7.10;;;;;;;;;;5014873;28;20295;-80
2022/07/21 02:34:44;;;;;;;15.27;8.33;;;;;;;;;;5014947;28;20236;-80
2022/07/21 02:37:11;;;;;;;14.73;8.13;;;;;;;;;;5010973;28;20235;-79
2022/07/21 02:39:38;;;;;;;13.90;7.93;;;;;;;;;;5014699;28;20244;-80
2022/07/21 02:42:06;;;;;;;11.57;8.20;;;;;;;;;;5013644;28;20204;-80
2022/07/21 02:44:33;;;;;;;12.23;8.10;;;;;;;;;;5011803;28;20224;-80
2022/07/21 02:47:00;;;;;;;14.47;8.93;;;;;;;;;;5013017;28;20211;-80
2022/07/21 02:52:38;;;;;;;13.70;8.97;;;;;;;;;;5014411;28;20258;-80
2022/07/21 02:55:06;;;;;;;15.03;9.50;;;;;;;;;;5011334;28;20635;-80
2022/07/21 02:57:33;;;;;;;12.60;8.60;;;;;;;;;;5018599;28;20272;-80
2022/07/21 03:00:00;;;;;;;13.97;9.23;;;;;;;;;;5018189;28;20210;-80
2022/07/21 03:02:27;;;;;;;14.70;8.47;;;;;;;;;;5018876;28;20741;-81
2022/07/21 03:04:54;;;;;;;17.13;9.40;;;;;;;;;;5017783;28;20228;-80
2022/07/21 03:07:21;;;;;;;14.83;9.20;;;;;;;;;;5017342;28;20245;-80
2022/07/21 03:09:50;;;;;;;16.40;9.23;;;;;;;;;;5019000;28;20212;-80
2022/07/21 03:12:17;;;;;;;14.30;9.20;;;;;;;;;;5018762;28;20232;-80
2022/07/21 03:14:44;;;;;;;17.50;9.33;;;;;;;;;;5018699;28;20229;-80
2022/07/21 03:17:11;;;;;;;16.70;9.77;;;;;;;;;;5019642;28;20220;-81
2022/07/21 03:19:39;;;;;;;18.27;10.07;;;;;;;;;;5021832;28;20208;-81
2022/07/21 03:22:06;;;;;;;15.93;9.57;;;;;;;;;;5018690;28;20272;-81
2022/07/21 03:24:33;;;;;;;16.27;9.87;;;;;;;;;;5018857;28;20267;-82
2022/07/21 03:27:01;;;;;;;14.83;9.07;;;;;;;;;;5020387;28;20244;-82
2022/07/21 03:29:28;;;;;;;14.93;9.07;;;;;;;;;;5021204;28;20303;-80
2022/07/21 03:31:56;;;;;;;11.87;8.63;;;;;;;;;;5019434;28;20232;-81
2022/07/21 03:34:23;;;;;;;14.60;9.50;;;;;;;;;;5017265;28;20307;-81
2022/07/21 03:36:50;;;;;;;13.07;8.73;;;;;;;;;;5016861;28;20291;-80
2022/07/21 03:39:17;;;;;;;14.50;8.87;;;;;;;;;;5020383;28;20208;-80
2022/07/21 03:41:44;;;;;;;13.07;8.87;;;;;;;;;;5020198;28;20200;-80
2022/07/21 03:44:13;;;;;;;15.00;9.10;;;;;;;;;;5017057;28;20236;-80
2022/07/21 03:46:40;;;;;;;14.90;9.67;;;;;;;;;;5020510;28;20239;-80
2022/07/21 03:49:07;;;;;;;17.33;10.43;;;;;;;;;;5019907;28;20669;-80
2022/07/21 03:51:34;;;;;;;19.63;10.57;;;;;;;;;;5021341;28;20733;-79
2022/07/21 03:54:01;;;;;;;15.13;9.60;;;;;;;;;;5019701;28;20231;-80
2022/07/21 03:56:29;;;;;;;16.87;9.63;;;;;;;;;;5027116;28;20211;-80
2022/07/21 03:58:56;;;;;;;15.10;10.30;;;;;;;;;;5027476;28;20212;-80
2022/07/21 04:01:24;;;;;;;15.43;10.27;;;;;;;;;;5032177;28;20257;-80
2022/07/21 04:03:51;;;;;;;17.33;10.17;;;;;;;;;;5017440;28;20240;-80
2022/07/21 04:06:18;;;;;;;17.17;9.17;;;;;;;;;;5017316;28;20243;-81
2022/07/21 04:08:46;;;;;;;17.17;10.13;;;;;;;;;;5019102;28;20200;-80
2022/07/21 04:11:13;;;;;;;16.60;9.80;;;;;;;;;;5020604;28;20212;-81
2022/07/21 04:13:40;;;;;;;14.33;9.20;;;;;;;;;;5020529;28;20204;-80
2022/07/21 04:16:08;;;;;;;12.50;8.57;;;;;;;;;;5019788;28;20214;-80
2022/07/21 04:18:36;;;;;;;13.63;9.13;;;;;;;;;;5019719;28;20660;-80
2022/07/21 04:21:03;;;;;;;16.70;10.10;;;;;;;;;;5017610;28;20795;-80
2022/07/21 04:23:31;;;;;;;15.77;9.43;;;;;;;;;;5018046;28;20257;-81
2022/07/21 04:25:58;;;;;;;15.77;9.47;;;;;;;;;;5018562;28;20207;-81
2022/07/21 04:28:25;;;;;;;12.13;8.70;;;;;;;;;;5017344;28;20396;-80
2022/07/21 04:30:52;;;;;;;13.70;8.70;;;;;;;;;;5018639;28;20200;-80
2022/07/21 04:33:20;;;;;;;15.03;8.87;;;;;;;;;;5018979;28;20235;-81
2022/07/21 04:35:48;;;;;;;10.97;8.27;;;;;;;;;;5020001;28;20324;-81
2022/07/21 04:38:15;;;;;;;12.13;7.73;;;;;;;;;;5020633;28;20232;-81
2022/07/21 04:40:42;;;;;;;11.17;8.20;;;;;;;;;;5023272;28;20268;-81
2022/07/21 04:43:10;;;;;;;10.50;7.73;;;;;;;;;;5017171;28;20291;-81
2022/07/21 04:45:37;;;;;;;14.27;8.40;;;;;;;;;;5020122;28;20230;-80
2022/07/21 04:48:04;;;;;;;11.20;7.60;;;;;;;;;;5016295;28;20204;-81
2022/07/21 04:50:32;;;;;;;12.23;7.20;;;;;;;;;;5016115;28;21120;-81
2022/07/21 04:53:01;;;;;;;12.30;7.50;;;;;;;;;;5016544;28;20208;-80
2022/07/21 04:55:28;;;;;;;12.47;8.03;;;;;;;;;;5014871;28;20282;-81
2022/07/21 04:57:57;;;;;;;11.90;8.20;;;;;;;;;;5015271;28;20207;-80
2022/07/21 05:00:25;;;;;;;11.20;7.50;;;;;;;;;;5014478;28;20208;-81
2022/07/21 05:02:53;;;;;;;12.10;7.87;;;;;;;;;;5010766;28;20213;-81
2022/07/21 05:05:20;;;;;;;12.23;7.70;;;;;;;;;;5015313;28;20295;-80
2022/07/21 05:07:48;;;;;;;9.93;7.47;;;;;;;;;;5014188;28;20201;-81
2022/07/21 05:10:17;;;;;;;12.43;7.17;;;;;;;;;;5012705;28;20200;-80
2022/07/21 05:12:44;;;;;;;11.33;7.50;;;;;;;;;;5014093;28;20247;-81
2022/07/21 05:15:12;;;;;;;12.00;7.40;;;;;;;;;;5012594;28;20221;-81
2022/07/21 05:17:40;;;;;;;12.00;7.27;;;;;;;;;;5010829;28;20331;-81
2022/07/21 05:20:08;;;;;;;8.30;6.37;;;;;;;;;;5012250;28;20291;-80
2022/07/21 05:22:35;;;;;;;12.17;6.53;;;;;;;;;;5010526;28;20201;-81
2022/07/21 05:25:02;;;;;;;12.43;7.20;;;;;;;;;;5008949;28;20236;-82
2022/07/21 05:27:30;;;;;;;8.30;5.37;;;;;;;;;;5011582;28;20231;-81
2022/07/21 05:29:57;;;;;;;13.13;5.73;;;;;;;;;;5011887;28;20279;-81
2022/07/21 05:32:24;;;;;;;13.53;5.23;;;;;;;;;;5014368;28;20204;-81
2022/07/21 05:34:52;;;;;;;6.70;4.47;;;;;;;;;;5008577;28;20235;-81
2022/07/21 05:37:19;;;;;;;6.17;4.77;;;;;;;;;;5019416;28;20256;-81
2022/07/21 05:39:46;;;;;;;6.67;4.80;;;;;;;;;;5015971;28;20224;-81
2022/07/21 05:42:13;;;;;;;10.47;4.43;;;;;;;;;;5022528;28;20276;-81
2022/07/21 05:44:42;;;;;;;7.13;4.40;;;;;;;;;;5014586;28;20235;-81
2022/07/21 05:47:09;;;;;;;6.13;4.37;;;;;;;;;;5014887;28;20247;-81
2022/07/21 05:49:36;;;;;;;4.90;3.90;;;;;;;;;;5013976;28;20212;-80
2022/07/21 05:52:03;;;;;;;4.83;4.10;;;;;;;;;;5009880;28;20209;-82
2022/07/21 05:54:32;;;;;;;5.03;3.70;;;;;;;;;;5014397;28;20288;-81
2022/07/21 05:56:59;;;;;;;7.03;4.10;;;;;;;;;;5012983;28;20462;-81
2022/07/21 05:59:26;;;;;;;5.13;3.93;;;;;;;;;;5014453;28;20218;-81
2022/07/21 06:01:55;;;;;;;5.07;3.43;;;;;;;;;;5014314;28;20262;-81
2022/07/21 06:04:22;;;;;;;9.07;4.30;;;;;;;;;;5006735;28;20235;-81
2022/07/21 06:06:49;;;;;;;11.27;5.20;;;;;;;;;;5014825;28;20209;-81
2022/07/21 06:09:16;;;;;;;8.47;5.37;;;;;;;;;;5011319;28;20216;-81
2022/07/21 06:11:43;;;;;;;6.80;4.60;;;;;;;;;;5005819;28;20676;-81
2022/07/21 06:14:10;;;;;;;8.23;4.67;;;;;;;;;;5010024;28;20224;-81
2022/07/21 06:16:38;;;;;;;8.47;4.57;;;;;;;;;;5010548;28;20231;-80
2022/07/21 06:19:20;;;;;;;5.73;4.60;;;;;;;;;;5012674;28;20209;-82
2022/07/21 06:21:47;;;;;;;8.13;5.07;;;;;;;;;;5012304;28;20550;-80
2022/07/21 06:26:59;;;;;;;8.80;5.63;;;;;;;;;;5011656;28;20228;-81
2022/07/21 06:29:29;;;;;;;7.93;5.53;;;;;;;;;;5013296;28;20201;-81
2022/07/21 06:32:07;;;;;;;9.63;5.63;;;;;;;;;;5010544;28;20258;-80
2022/07/21 06:34:35;;;;;;;9.40;5.70;;;;;;;;;;5011249;28;20224;-81
2022/07/21 06:37:03;;;;;;;8.47;5.57;;;;;;;;;;5006727;28;20280;-80
2022/07/21 06:39:30;;;;;;;10.90;6.07;;;;;;;;;;5011807;28;20208;-81
2022/07/21 06:41:57;;;;;;;11.00;5.30;;;;;;;;;;5009421;28;20222;-80
2022/07/21 06:44:26;;;;;;;7.80;5.80;;;;;;;;;;5012913;28;20238;-80
2022/07/21 06:46:54;;;;;;;8.83;5.83;;;;;;;;;;5012589;28;20208;-81
2022/07/21 06:49:45;;;;;;;8.70;5.67;;;;;;;;;;5004819;28;20212;-80
2022/07/21 06:52:34;;;;;;;9.37;6.10;;;;;;;;;;5005636;28;20227;-80
2022/07/21 06:55:01;;;;;;;11.33;6.53;;;;;;;;;;5008532;28;20228;-80
2022/07/21 06:57:28;;;;;;;9.00;5.50;;;;;;;;;;5012439;28;20215;-81
2022/07/21 06:59:55;;;;;;;8.43;5.63;;;;;;;;;;5017285;28;20215;-81
2022/07/21 07:02:22;;;;;;;7.20;5.07;;;;;;;;;;5017178;28;20231;-82
2022/07/21 07:04:49;;;;;;;7.60;5.10;;;;;;;;;;5016969;28;20235;-82
2022/07/21 07:07:16;;;;;;;6.83;4.67;;;;;;;;;;5017375;28;20558;-81
2022/07/21 07:09:45;;;;;;;5.90;4.30;;;;;;;;;;5013448;28;20219;-82
2022/07/21 07:14:54;;;;;;;6.30;4.30;;;;;;;;;;5013224;28;20219;-80
2022/07/21 07:17:21;;;;;;;6.67;4.40;;;;;;;;;;5016290;28;20295;-80
2022/07/21 07:19:51;;;;;;;9.03;4.20;;;;;;;;;;5014088;28;20675;-80
2022/07/21 07:22:19;;;;;;;7.03;3.55;;;;;;;;;;5011907;28;20228;-80
2022/07/21 07:25:22;;;;;;;5.60;3.60;;;;;;;;;;5010020;28;20312;-82
2022/07/21 07:27:51;;;;;;;6.40;3.85;;;;;;;;;;5007498;28;20299;-80
2022/07/21 07:30:19;;;;;;;5.65;3.60;;;;;;;;;;5010264;28;20213;-80
2022/07/21 07:32:47;;;;;;;4.93;3.73;;;;;;;;;;5008467;28;20243;-79
2022/07/21 07:35:15;;;;;;;6.43;3.90;;;;;;;;;;5010636;28;20254;-79
2022/07/21 07:37:43;;;;;;;8.50;4.03;;;;;;;;;;5007987;28;20202;-79
2022/07/21 07:40:11;;;;;;;5.13;3.87;;;;;;;;;;5008159;28;20750;-80
2022/07/21 07:42:39;;;;;;;5.90;4.03;;;;;;;;;;5015335;28;20207;-79
2022/07/21 07:48:20;;;;;;;4.40;3.43;;;;;;;;;;5018135;28;20193;-79
2022/07/21 07:51:15;;;;;;;6.37;3.67;;;;;;;;;;5018816;28;20264;-79
2022/07/21 07:53:42;;;;;;;4.60;3.37;;;;;;;;;;5013603;28;20235;-79
2022/07/21 07:56:10;;;;;;;5.07;3.57;;;;;;;;;;5010380;28;20210;-80
2022/07/21 07:58:37;;;;;;;6.67;3.60;;;;;;;;;;5018460;28;20239;-80
2022/07/21 08:01:05;;;;;;;4.83;3.50;;;;;;;;;;5015565;28;20209;-80
2022/07/21 08:03:34;;;;;;;5.97;3.70;;;;;;;;;;5016570;28;20218;-80
2022/07/21 08:06:03;;;;;;;5.30;3.17;;;;;;;;;;5015784;28;20307;-81
2022/07/21 08:08:50;;;;;;;8.33;3.47;;;;;;;;;;5018645;28;20213;-81
2022/07/21 08:11:17;;;;;;;5.20;3.20;;;;;;;;;;5017455;28;20212;-81
2022/07/21 08:13:44;;;;;;;6.87;3.40;;;;;;;;;;5018524;28;20208;-81
2022/07/21 08:16:12;;;;;;;5.67;3.10;;;;;;;;;;5019944;28;20287;-81
2022/07/21 08:18:40;;;;;;;6.47;3.63;;;;;;;;;;5019293;28;20204;-81
2022/07/21 08:21:08;;;;;;;4.93;3.27;;;;;;;;;;5020672;28;20290;-81
2022/07/21 08:23:35;;;;;;;4.00;3.17;;;;;;;;;;5015827;28;20200;-80
2022/07/21 08:26:02;;;;;;;4.23;3.13;;;;;;;;;;5015558;28;20220;-80
2022/07/21 08:28:29;;;;;;;5.00;3.20;;;;;;;;;;5016530;28;20307;-81
2022/07/21 08:30:56;;;;;;;6.23;3.63;;;;;;;;;;5015713;28;20287;-80
2022/07/21 08:33:23;;;;;;;9.57;3.17;;;;;;;;;;5017371;28;20243;-80
2022/07/21 08:35:53;;;;;;;5.13;3.70;;;;;;;;;;5017976;28;20244;-80
2022/07/21 08:38:21;;;;;;;5.80;3.57;;;;;;;;;;5013717;28;20882;-80
2022/07/21 08:40:48;;;;;;;4.73;3.50;;;;;;;;;;5015651;28;20567;-80
2022/07/21 08:43:15;;;;;;;7.07;3.43;;;;;;;;;;5013898;28;20255;-80
2022/07/21 08:45:43;;;;;;;6.40;3.80;;;;;;;;;;5012247;28;20362;-80
2022/07/21 08:48:10;;;;;;;5.50;3.83;;;;;;;;;;5006426;28;20907;-80
2022/07/21 08:50:40;;;;;;;7.47;3.63;;;;;;;;;;5016330;28;20750;-80
2022/07/21 08:53:08;;;;;;;5.63;3.70;;;;;;;;;;5015770;28;20671;-79
2022/07/21 08:55:38;;;;;;;5.63;3.50;;;;;;;;;;5015001;28;20232;-80
2022/07/21 08:58:08;;;;;;;4.37;3.53;;;;;;;;;;5015320;28;20208;-80
2022/07/21 09:00:36;;;;;;;5.60;3.90;;;;;;;;;;5017521;28;20270;-81
2022/07/21 09:03:10;;;;;;;4.37;3.43;;;;;;;;;;5016948;28;20291;-80
2022/07/21 09:05:37;;;;;;;6.50;3.60;;;;;;;;;;5014110;28;20764;-80
2022/07/21 09:08:04;;;;;;;6.03;4.00;;;;;;;;;;5012850;28;20301;-81
2022/07/21 09:10:33;;;;;;;6.33;4.23;;;;;;;;;;5014865;28;20223;-80
2022/07/21 09:13:06;;;;;;;6.57;4.23;;;;;;;;;;5014029;28;20247;-81
2022/07/21 09:15:33;;;;;;;8.33;4.50;;;;;;;;;;5018751;28;20228;-80
2022/07/21 09:18:11;;;;;;;5.27;4.07;;;;;;;;;;5012584;28;20202;-80
2022/07/21 09:20:40;;;;;;;8.63;4.17;;;;;;;;;;5018687;28;20308;-80
2022/07/21 09:23:09;;;;;;;6.43;4.60;;;;;;;;;;5013395;28;20240;-81
2022/07/21 09:25:42;;;;;;;6.87;4.30;;;;;;;;;;5011986;28;20347;-81
2022/07/21 09:28:10;;;;;;;7.03;4.73;;;;;;;;;;5016374;28;20280;-81
2022/07/21 09:30:48;;;;;;;10.73;4.47;;;;;;;;;;5015618;28;20241;-79
2022/07/21 09:33:21;;;;;;;6.83;3.97;;;;;;;;;;5011659;28;20197;-80
2022/07/21 09:35:53;;;;;;;5.53;3.90;;;;;;;;;;5013307;28;20234;-80
2022/07/21 09:38:20;;;;;;;6.97;4.03;;;;;;;;;;5015701;28;20239;-80
2022/07/21 09:40:49;;;;;;;7.90;4.43;;;;;;;;;;5016505;28;20202;-81
2022/07/21 09:43:29;;;;;;;6.43;4.77;;;;;;;;;;5015538;28;20235;-80
2022/07/21 09:45:56;;;;;;;7.83;4.20;;;;;;;;;;5008923;28;20229;-80
2022/07/21 09:48:33;;;;;;;5.60;4.00;;;;;;;;;;5014257;28;20297;-81
2022/07/21 09:51:20;;;;;;;6.40;4.33;;;;;;;;;;5014391;28;20199;-80
2022/07/21 09:53:51;;;;;;;9.93;4.03;;;;;;;;;;5015313;28;20216;-80
2022/07/21 09:56:20;;;;;;;5.07;3.90;;;;;;;;;;5012701;28;20279;-80
2022/07/21 09:58:47;;;;;;;4.30;3.40;;;;;;;;;;5009992;28;20287;-80
2022/07/21 10:01:15;;;;;;;5.53;3.63;;;;;;;;;;5007558;28;20700;-79
2022/07/21 10:03:44;;;;;;;10.67;4.53;;;;;;;;;;5007783;28;20217;-80
2022/07/21 10:06:11;;;;;;;7.53;4.27;;;;;;;;;;5011220;28;20303;-79
2022/07/21 10:08:39;;;;;;;6.63;4.33;;;;;;;;;;5013001;28;20242;-79
2022/07/21 10:11:06;;;;;;;9.23;4.30;;;;;;;;;;5011888;28;20557;-80
2022/07/21 10:13:34;;;;;;;7.67;4.03;;;;;;;;;;5008683;28;20215;-80
2022/07/21 10:16:02;;;;;;;8.13;4.30;;;;;;;;;;5014116;28;20202;-79
2022/07/21 10:18:30;;;;;;;7.53;3.70;;;;;;;;;;5013205;28;20313;-80
2022/07/21 10:21:00;;;;;;;6.80;4.03;;;;;;;;;;5010966;28;20238;-80
2022/07/21 10:23:30;;;;;;;7.40;4.17;;;;;;;;;;5014567;28;20993;-80
2022/07/21 10:25:58;;;;;;;7.80;4.30;;;;;;;;;;5012972;28;20245;-80
2022/07/21 10:28:27;;;;;;;8.23;3.97;;;;;;;;;;5013779;28;20586;-80
2022/07/21 10:30:56;;;;;;;6.13;3.80;;;;;;;;;;5013837;28;20691;-80
2022/07/21 10:33:43;;;;;;;5.47;3.37;;;;;;;;;;5013996;28;20292;-80
2022/07/21 10:36:10;;;;;;;4.07;3.20;;;;;;;;;;5014267;28;20271;-80
2022/07/21 10:38:38;;;;;;;4.70;2.83;;;;;;;;;;5013782;28;20459;-80
2022/07/21 10:41:06;;;;;;;5.10;3.10;;;;;;;;;;5014383;28;20206;-80
2022/07/21 10:43:39;;;;;;;4.87;2.50;;;;;;;;;;5017354;28;20208;-80
2022/07/21 10:46:27;;;;;;;4.00;2.70;;;;;;;;;;5014449;28;20224;-80
2022/07/21 10:48:55;;;;;;;4.00;2.87;;;;;;;;;;5016553;28;20275;-79
2022/07/21 10:51:25;;;;;;;4.87;3.23;;;;;;;;;;5013827;28;20949;-80
2022/07/21 10:54:07;;;;;;;6.33;3.07;;;;;;;;;;5016601;28;20308;-81
2022/07/21 10:56:34;;;;;;;4.63;3.00;;;;;;;;;;5013862;28;20204;-81
2022/07/21 10:59:02;;;;;;;5.10;3.10;;;;;;;;;;5010473;28;20237;-80
2022/07/21 11:01:30;;;;;;;6.70;3.20;;;;;;;;;;5009531;28;20201;-81
2022/07/21 11:04:08;;;;;;;3.80;3.20;;;;;;;;;;5016597;28;20255;-80
2022/07/21 11:06:35;;;;;;;6.07;3.00;;;;;;;;;;5015170;28;20227;-79
2022/07/21 11:09:10;;;;;;;5.63;3.20;;;;;;;;;;5005220;28;20222;-79
2022/07/21 11:11:39;;;;;;;5.47;3.03;;;;;;;;;;5013444;28;20217;-80
2022/07/21 11:14:08;;;;;;;5.10;3.40;;;;;;;;;;5012258;28;20311;-80
2022/07/21 11:17:08;;;;;;;6.77;3.33;;;;;;;;;;5013888;28;20259;-81
2022/07/21 11:19:38;;;;;;;7.57;3.60;;;;;;;;;;5017697;28;20200;-79
2022/07/21 11:22:06;;;;;;;4.23;3.30;;;;;;;;;;5013083;28;20215;-80
2022/07/21 11:24:34;;;;;;;10.77;3.17;;;;;;;;;;5013481;28;20238;-80
2022/07/21 11:27:02;;;;;;;3.83;2.80;;;;;;;;;;5012300;28;20233;-80
2022/07/21 11:29:30;;;;;;;5.90;3.30;;;;;;;;;;5017353;28;20212;-80
2022/07/21 11:31:58;;;;;;;5.47;3.37;;;;;;;;;;5015536;28;20236;-80
2022/07/21 11:34:26;;;;;;;5.53;3.27;;;;;;;;;;5010818;28;20315;-80
2022/07/21 11:37:01;;;;;;;4.60;2.67;;;;;;;;;;5007909;28;20616;-80
2022/07/21 11:39:28;;;;;;;8.77;3.13;;;;;;;;;;5014107;28;20291;-80
2022/07/21 11:41:59;;;;;;;4.23;3.03;;;;;;;;;;5012910;28;20240;-81
2022/07/21 11:44:27;;;;;;;5.80;3.27;;;;;;;;;;5012617;28;20299;-80
2022/07/21 11:46:55;;;;;;;7.83;3.43;;;;;;;;;;5014391;28;20233;-80
2022/07/21 11:49:22;;;;;;;7.00;3.50;;;;;;;;;;5016158;28;20291;-80
2022/07/21 11:51:50;;;;;;;5.77;3.77;;;;;;;;;;5018441;28;20211;-79
2022/07/21 11:54:24;;;;;;;4.73;3.13;;;;;;;;;;5012978;28;20302;-80
2022/07/21 11:56:51;;;;;;;6.27;3.00;;;;;;;;;;5013036;28;20483;-79
2022/07/21 11:59:19;;;;;;;6.13;3.10;;;;;;;;;;5010115;28;20291;-79
2022/07/21 12:01:54;;;;;;;6.93;3.30;;;;;;;;;;5012207;28;20238;-79
2022/07/21 12:04:28;;;;;;;10.03;3.23;;;;;;;;;;5013761;28;20282;-79
2022/07/21 12:06:55;;;;;;;6.90;3.10;;;;;;;;;;5013413;28;20307;-80
2022/07/21 12:09:26;;;;;;;4.60;3.10;;;;;;;;;;5013281;28;20215;-79
2022/07/21 12:11:53;;;;;;;4.33;3.13;;;;;;;;;;5013609;28;20208;-79
2022/07/21 12:14:22;;;;;;;4.57;3.20;;;;;;;;;;5015945;28;20287;-80
2022/07/21 12:16:50;;;;;;;7.43;2.93;;;;;;;;;;5012732;28;20196;-80
2022/07/21 12:19:18;;;;;;;6.00;3.30;;;;;;;;;;5013030;28;20206;-80
2022/07/21 12:21:46;;;;;;;7.17;3.40;;;;;;;;;;5017847;28;20201;-80
2022/07/21 12:24:13;;;;;;;5.40;3.17;;;;;;;;;;5015850;28;20350;-80
2022/07/21 12:26:41;;;;;;;7.03;2.90;;;;;;;;;;5009131;28;20222;-81
2022/07/21 12:29:09;;;;;;;8.67;4.10;;;;;;;;;;5016079;28;20296;-81
2022/07/21 12:31:37;;;;;;;8.13;3.07;;;;;;;;;;5013101;28;20276;-81
2022/07/21 12:34:14;;;;;;;5.33;3.13;;;;;;;;;;5012109;28;20228;-81
2022/07/21 12:36:44;;;;;;;6.40;3.07;;;;;;;;;;5016201;28;20198;-80
2022/07/21 12:39:55;;;;;;;6.10;3.30;;;;;;;;;;5011027;28;20204;-81
2022/07/21 12:42:04;;;;;;;3.77;2.83;;;;;;;;;;5015330;28;20679;-81
2022/07/21 12:44:31;;;;;;;4.97;3.07;;;;;;;;;;5012759;28;20366;-81
2022/07/21 12:47:13;;;;;;;5.57;3.00;;;;;;;;;;5015341;28;20219;-81
2022/07/21 12:49:54;;;;;;;7.70;3.10;;;;;;;;;;5016473;28;20231;-80
2022/07/21 12:52:22;;;;;;;6.57;3.13;;;;;;;;;;5011092;28;20203;-80
2022/07/21 12:54:49;;;;;;;6.90;3.43;;;;;;;;;;5015753;28;20291;-79
2022/07/21 12:57:17;;;;;;;6.20;3.23;;;;;;;;;;5017812;28;20218;-80
2022/07/21 12:59:44;;;;;;;9.00;3.13;;;;;;;;;;5013464;28;20201;-79
2022/07/21 13:02:12;;;;;;;5.30;2.77;;;;;;;;;;5016123;28;20650;-79
2022/07/21 13:04:40;;;;;;;6.37;2.80;;;;;;;;;;5016872;28;20258;-80
2022/07/21 13:07:07;;;;;;;5.47;2.90;;;;;;;;;;5016364;28;20282;-80
2022/07/21 13:09:34;;;;;;;7.27;3.13;;;;;;;;;;5017981;28;21118;-79
2022/07/21 13:12:02;;;;;;;6.73;3.00;;;;;;;;;;5016999;28;20203;-79
2022/07/21 13:14:31;;;;;;;6.07;3.20;;;;;;;;;;5015095;28;20265;-79
2022/07/21 13:16:58;;;;;;;5.60;3.20;;;;;;;;;;5014442;28;20238;-80
2022/07/21 13:19:25;;;;;;;7.07;3.43;;;;;;;;;;5016143;28;20204;-79
2022/07/21 13:21:53;;;;;;;6.23;3.13;;;;;;;;;;5016104;28;20232;-81
2022/07/21 13:24:23;;;;;;;5.77;3.17;;;;;;;;;;5018697;28;20234;-81
2022/07/21 13:26:50;;;;;;;5.30;3.10;;;;;;;;;;5019151;28;20264;-79
2022/07/21 13:29:17;;;;;;;10.30;3.23;;;;;;;;;;5020467;28;20310;-81
2022/07/21 13:31:46;;;;;;;8.10;3.70;;;;;;;;;;5019816;28;20295;-81
2022/07/21 13:34:13;;;;;;;9.07;3.30;;;;;;;;;;5016751;28;20234;-80
2022/07/21 13:36:40;;;;;;;6.47;3.20;;;;;;;;;;5012058;28;20234;-80
2022/07/21 13:39:07;;;;;;;4.27;2.97;;;;;;;;;;5011950;28;20228;-80
2022/07/21 13:41:37;;;;;;;4.57;3.00;;;;;;;;;;5017105;28;20208;-80
2022/07/21 13:44:04;;;;;;;4.53;3.13;;;;;;;;;;5014948;28;20589;-80
2022/07/21 13:46:40;;;;;;;6.33;3.00;;;;;;;;;;5016236;28;20281;-80
2022/07/21 13:49:09;;;;;;;9.50;3.57;;;;;;;;;;5015842;28;20205;-79
2022/07/21 13:51:36;;;;;;;9.63;3.73;;;;;;;;;;5014547;28;20208;-80
2022/07/21 13:54:03;;;;;;;9.10;3.40;;;;;;;;;;5014701;28;20255;-80
2022/07/21 13:56:30;;;;;;;5.07;3.33;;;;;;;;;;5014354;28;20231;-80
2022/07/21 13:59:00;;;;;;;6.63;3.63;;;;;;;;;;5015870;28;20229;-79
2022/07/21 14:01:28;;;;;;;7.17;3.67;;;;;;;;;;5014600;28;20250;-79
2022/07/21 14:03:55;;;;;;;7.50;3.90;;;;;;;;;;5014776;28;20223;-81
2022/07/21 14:06:27;;;;;;;7.47;4.00;;;;;;;;;;5013212;28;20315;-79
2022/07/21 14:08:54;;;;;;;6.23;3.77;;;;;;;;;;5012259;28;20291;-79
2022/07/21 14:11:23;;;;;;;7.90;4.50;;;;;;;;;;5011316;28;20259;-79
2022/07/21 14:13:51;;;;;;;5.77;4.40;;;;;;;;;;5014245;28;20295;-79
2022/07/21 14:16:25;;;;;;;7.90;4.80;;;;;;;;;;5015304;28;20235;-80
2022/07/21 14:18:52;;;;;;;7.40;4.80;;;;;;;;;;5016774;28;20208;-80
2022/07/21 14:21:20;;;;;;;7.33;4.60;;;;;;;;;;5017261;28;20208;-79
2022/07/21 14:25:17;;;;;;;11.63;5.17;;;;;;;;;;5013975;28;20303;-79
2022/07/21 14:26:35;;;;;;;7.07;5.03;;;;;;;;;;5013078;28;20580;-79
2022/07/21 14:29:03;;;;;;;8.27;5.00;;;;;;;;;;5017627;28;20232;-81
2022/07/21 14:31:30;;;;;;;9.10;5.00;;;;;;;;;;5017532;28;20213;-82
2022/07/21 14:33:57;;;;;;;7.83;5.03;;;;;;;;;;5013442;28;20283;-80
2022/07/21 14:36:24;;;;;;;9.17;5.03;;;;;;;;;;5017086;28;20718;-80
2022/07/21 14:38:53;;;;;;;10.07;5.00;;;;;;;;;;5011866;28;20201;-79
2022/07/21 14:41:20;;;;;;;12.80;4.90;;;;;;;;;;5016664;28;20228;-78
2022/07/21 14:43:48;;;;;;;6.67;4.60;;;;;;;;;;5016072;28;20267;-79
2022/07/21 14:46:15;;;;;;;7.87;4.77;;;;;;;;;;5014702;28;20204;-79
2022/07/21 14:48:43;;;;;;;7.77;4.90;;;;;;;;;;5013742;28;20209;-80
2022/07/21 14:51:10;;;;;;;7.60;5.23;;;;;;;;;;5014958;28;20216;-80
2022/07/21 14:53:37;;;;;;;7.43;4.90;;;;;;;;;;5017619;28;20429;-79
2022/07/21 14:56:06;;;;;;;12.33;5.43;;;;;;;;;;5018232;28;20210;-80
2022/07/21 14:58:33;;;;;;;9.33;5.03;;;;;;;;;;5016566;28;20644;-79
2022/07/21 15:01:11;;;;;;;7.60;4.73;;;;;;;;;;5015961;28;20254;-79
2022/07/21 15:03:38;;;;;;;7.37;4.73;;;;;;;;;;5012293;28;20403;-80
2022/07/21 15:06:05;;;;;;;7.93;4.90;;;;;;;;;;5012595;28;20207;-79
2022/07/21 15:08:32;;;;;;;7.97;4.70;;;;;;;;;;5011008;28;20221;-79